createdAt,value
2018-12-26T00:00:54.091Z,35.90
2018-12-26T00:03:24.066Z,35.80
2018-12-26T00:05:54.065Z,35.90
2018-12-26T00:08:24.041Z,35.80
2018-12-26T00:10:54.101Z,35.90
2018-12-26T00:13:24.055Z,35.90
2018-12-26T00:15:54.051Z,35.80
2018-12-26T00:18:24.118Z,35.90
2018-12-26T00:20:54.159Z,35.90
2018-12-26T00:23:24.221Z,35.90
2018-12-26T00:26:01.457Z,36.00
2018-12-26T00:28:25.818Z,35.90
2018-12-26T00:30:55.762Z,36.00
2018-12-26T00:33:25.826Z,36.10
2018-12-26T00:35:55.773Z,36.10
2018-12-26T00:38:25.746Z,36.10
2018-12-26T00:40:55.694Z,36.20
2018-12-26T00:43:25.649Z,36.90
2018-12-26T00:45:55.920Z,36.30
2018-12-26T00:48:25.945Z,36.20
2018-12-26T00:50:55.901Z,36.30
2018-12-26T00:53:25.857Z,36.30
2018-12-26T00:55:55.818Z,36.40
2018-12-26T00:58:25.876Z,36.50
2018-12-26T01:00:55.815Z,36.60
2018-12-26T01:03:25.775Z,36.60
2018-12-26T01:05:55.724Z,36.70
2018-12-26T01:08:25.682Z,36.80
2018-12-26T01:10:55.635Z,36.80
2018-12-26T01:13:25.616Z,36.80
2018-12-26T01:15:55.590Z,36.80
2018-12-26T01:18:25.546Z,36.70
2018-12-26T01:20:55.570Z,36.70
2018-12-26T01:23:25.518Z,36.60
2018-12-26T01:25:55.466Z,36.60
2018-12-26T01:28:25.481Z,36.50
2018-12-26T01:30:55.437Z,36.50
2018-12-26T01:33:25.477Z,36.50
2018-12-26T01:35:56.170Z,36.30
2018-12-26T01:38:26.260Z,36.20
2018-12-26T01:40:56.218Z,36.20
2018-12-26T01:43:26.166Z,36.20
2018-12-26T01:45:56.137Z,36.20
2018-12-26T01:48:27.054Z,36.10
2018-12-26T01:50:57.013Z,36.10
2018-12-26T01:53:26.981Z,36.10
2018-12-26T01:55:56.939Z,36.00
2018-12-26T01:58:26.926Z,36.10
2018-12-26T02:00:56.881Z,36.10
2018-12-26T02:03:26.849Z,36.10
2018-12-26T02:05:56.811Z,36.10
2018-12-26T02:08:27.627Z,36.10
2018-12-26T02:10:57.583Z,36.10
2018-12-26T02:13:27.535Z,36.10
2018-12-26T02:15:57.493Z,36.10
2018-12-26T02:18:27.441Z,36.10
2018-12-26T02:20:57.470Z,36.20
2018-12-26T02:23:27.429Z,36.20
2018-12-26T02:25:57.397Z,36.20
2018-12-26T02:28:27.357Z,36.30
2018-12-26T02:30:57.305Z,36.30
2018-12-26T02:33:27.270Z,36.30
2018-12-26T02:35:57.214Z,36.30
2018-12-26T02:38:27.175Z,36.30
2018-12-26T02:40:57.134Z,36.30
2018-12-26T02:43:27.107Z,36.40
2018-12-26T02:45:57.122Z,36.50
2018-12-26T02:48:27.114Z,36.50
2018-12-26T02:50:57.068Z,36.60
2018-12-26T02:53:27.066Z,36.70
2018-12-26T02:55:57.018Z,36.80
2018-12-26T02:58:27.053Z,36.90
2018-12-26T03:00:57.079Z,36.90
2018-12-26T03:03:27.134Z,36.90
2018-12-26T03:05:57.137Z,36.80
2018-12-26T03:08:27.109Z,36.90
2018-12-26T03:10:57.088Z,36.80
2018-12-26T03:13:27.075Z,36.80
2018-12-26T03:15:57.026Z,36.80
2018-12-26T03:18:26.994Z,36.70
2018-12-26T03:20:57.056Z,36.60
2018-12-26T03:23:27.282Z,36.60
2018-12-26T03:25:57.392Z,36.40
2018-12-26T03:28:27.453Z,36.30
2018-12-26T03:30:57.521Z,36.30
2018-12-26T03:33:27.580Z,36.30
2018-12-26T03:35:57.628Z,36.30
2018-12-26T03:38:27.742Z,36.20
2018-12-26T03:40:57.787Z,36.20
2018-12-26T03:43:27.855Z,36.20
2018-12-26T03:45:57.927Z,36.30
2018-12-26T03:48:27.983Z,36.20
2018-12-26T03:50:58.056Z,36.20
2018-12-26T03:53:28.121Z,36.10
2018-12-26T03:55:58.178Z,36.30
2018-12-26T03:58:28.232Z,36.20
2018-12-26T04:00:58.328Z,36.20
2018-12-26T04:03:28.387Z,36.20
2018-12-26T04:05:58.497Z,36.20
2018-12-26T04:08:28.560Z,36.20
2018-12-26T04:10:58.620Z,36.20
2018-12-26T04:13:28.686Z,36.30
2018-12-26T04:15:58.747Z,36.30
2018-12-26T04:18:28.803Z,36.30
2018-12-26T04:20:58.863Z,36.40
2018-12-26T04:23:28.912Z,36.40
2018-12-26T04:25:59.014Z,36.60
2018-12-26T04:28:29.027Z,36.40
2018-12-26T04:30:59.080Z,36.50
2018-12-26T04:33:29.173Z,36.50
2018-12-26T04:35:59.228Z,36.60
2018-12-26T04:38:29.286Z,36.70
2018-12-26T04:40:59.382Z,36.70
2018-12-26T04:43:29.424Z,36.80
2018-12-26T04:45:59.472Z,36.90
2018-12-26T04:48:29.533Z,37.00
2018-12-26T04:50:59.676Z,37.10
2018-12-26T04:53:29.748Z,37.00
2018-12-26T04:55:59.820Z,37.10
2018-12-26T04:58:29.873Z,37.10
2018-12-26T05:00:59.998Z,37.00
2018-12-26T05:03:30.055Z,36.90
2018-12-26T05:06:00.122Z,36.90
2018-12-26T05:08:30.198Z,36.80
2018-12-26T05:11:00.267Z,36.70
2018-12-26T05:13:30.353Z,36.70
2018-12-26T05:16:00.414Z,36.70
2018-12-26T05:18:30.459Z,36.60
2018-12-26T05:21:00.519Z,36.50
2018-12-26T05:23:30.586Z,36.40
2018-12-26T05:26:00.660Z,36.70
2018-12-26T05:28:30.722Z,36.40
2018-12-26T05:31:00.793Z,36.40
2018-12-26T05:33:30.856Z,36.30
2018-12-26T05:36:00.903Z,36.30
2018-12-26T05:38:30.959Z,36.30
2018-12-26T05:41:01.028Z,36.30
2018-12-26T05:43:31.081Z,36.30
2018-12-26T05:46:01.143Z,36.30
2018-12-26T05:48:31.194Z,36.30
2018-12-26T05:51:01.242Z,36.30
2018-12-26T05:53:31.309Z,36.30
2018-12-26T05:56:01.463Z,36.30
2018-12-26T05:58:31.544Z,36.30
2018-12-26T06:01:01.591Z,36.30
2018-12-26T06:03:31.660Z,36.40
2018-12-26T06:06:01.828Z,36.30
2018-12-26T06:08:31.880Z,36.40
2018-12-26T06:11:02.039Z,36.40
2018-12-26T06:13:32.089Z,36.50
2018-12-26T06:16:02.152Z,36.50
2018-12-26T06:18:32.223Z,36.50
2018-12-26T06:21:02.284Z,36.60
2018-12-26T06:23:32.352Z,36.60
2018-12-26T06:26:02.409Z,36.60
2018-12-26T06:28:32.593Z,36.70
2018-12-26T06:31:02.649Z,36.80
2018-12-26T06:33:32.711Z,36.90
2018-12-26T06:36:02.776Z,37.00
2018-12-26T06:38:32.840Z,37.00
2018-12-26T06:41:02.918Z,37.20
2018-12-26T06:43:32.974Z,37.20
2018-12-26T06:46:03.067Z,37.20
2018-12-26T06:48:33.128Z,37.20
2018-12-26T06:51:03.202Z,37.30
2018-12-26T06:53:33.256Z,37.20
2018-12-26T06:56:03.326Z,37.20
2018-12-26T06:58:33.427Z,37.10
2018-12-26T07:01:03.505Z,37.10
2018-12-26T07:03:33.582Z,37.00
2018-12-26T07:06:03.605Z,36.90
2018-12-26T07:08:33.569Z,36.90
2018-12-26T07:11:03.553Z,36.80
2018-12-26T07:13:33.629Z,36.70
2018-12-26T07:16:03.615Z,36.60
2018-12-26T07:18:33.660Z,36.50
2018-12-26T07:21:03.774Z,36.90
2018-12-26T07:23:33.802Z,36.60
2018-12-26T07:26:03.822Z,36.50
2018-12-26T07:28:33.809Z,36.50
2018-12-26T07:31:03.852Z,36.50
2018-12-26T07:33:33.882Z,36.60
2018-12-26T07:36:03.855Z,36.80
2018-12-26T07:38:33.805Z,36.40
2018-12-26T07:41:03.770Z,36.50
2018-12-26T07:43:33.770Z,36.50
2018-12-26T07:46:04.082Z,36.50
2018-12-26T07:48:34.075Z,36.50
2018-12-26T07:51:04.137Z,36.50
2018-12-26T07:53:34.102Z,36.50
2018-12-26T07:56:04.042Z,36.50
2018-12-26T07:58:34.039Z,36.50
2018-12-26T08:01:03.990Z,36.60
2018-12-26T08:03:33.956Z,36.60
2018-12-26T08:06:03.934Z,36.60
2018-12-26T08:08:33.905Z,36.70
2018-12-26T08:11:03.899Z,36.70
2018-12-26T08:13:33.862Z,36.70
2018-12-26T08:16:03.896Z,36.90
2018-12-26T08:18:33.850Z,36.80
2018-12-26T08:21:03.813Z,36.90
2018-12-26T08:23:33.878Z,37.10
2018-12-26T08:26:03.838Z,37.00
2018-12-26T08:28:33.810Z,37.20
2018-12-26T08:31:03.770Z,37.20
2018-12-26T08:33:33.717Z,37.30
2018-12-26T08:36:03.685Z,37.30
2018-12-26T08:38:33.638Z,37.30
2018-12-26T08:41:03.618Z,37.30
2018-12-26T08:43:33.566Z,37.40
2018-12-26T08:46:03.531Z,37.30
2018-12-26T08:48:33.494Z,37.40
2018-12-26T08:51:03.515Z,37.30
2018-12-26T08:53:33.522Z,37.30
2018-12-26T08:56:03.559Z,37.20
2018-12-26T08:58:35.287Z,37.10
2018-12-26T09:01:05.261Z,37.00
2018-12-26T09:03:35.227Z,36.90
2018-12-26T09:06:05.193Z,36.90
2018-12-26T09:08:35.166Z,36.80
2018-12-26T09:11:05.177Z,36.90
2018-12-26T09:13:35.149Z,36.70
2018-12-26T09:16:05.105Z,36.60
2018-12-26T09:18:35.058Z,36.80
2018-12-26T09:21:05.022Z,36.60
2018-12-26T09:23:34.982Z,36.60
2018-12-26T09:26:06.601Z,36.60
2018-12-26T09:28:43.816Z,36.60
2018-12-26T09:31:08.214Z,36.60
2018-12-26T09:33:38.173Z,36.60
2018-12-26T09:36:08.126Z,36.60
2018-12-26T09:38:38.090Z,36.60
2018-12-26T09:41:08.058Z,36.50
2018-12-26T09:43:38.021Z,36.60
2018-12-26T09:46:08.020Z,36.50
2018-12-26T09:48:38.708Z,36.70
2018-12-26T09:51:08.715Z,36.70
2018-12-26T09:53:38.671Z,36.70
2018-12-26T09:56:08.939Z,36.70
2018-12-26T09:58:38.936Z,36.80
2018-12-26T10:01:08.966Z,36.80
2018-12-26T10:03:39.018Z,36.80
2018-12-26T10:06:08.978Z,36.90
2018-12-26T10:08:38.929Z,36.90
2018-12-26T10:11:08.924Z,37.40
2018-12-26T10:13:38.871Z,37.00
2018-12-26T10:16:08.836Z,37.10
2018-12-26T10:18:38.931Z,37.10
2018-12-26T10:21:08.878Z,37.20
2018-12-26T10:23:38.947Z,37.20
2018-12-26T10:26:08.904Z,37.30
2018-12-26T10:28:38.942Z,37.30
2018-12-26T10:31:09.518Z,37.40
2018-12-26T10:33:39.638Z,37.60
2018-12-26T10:36:09.711Z,37.60
2018-12-26T10:38:39.698Z,37.50
2018-12-26T10:41:09.657Z,37.60
2018-12-26T10:43:39.630Z,37.60
2018-12-26T10:46:09.593Z,37.50
2018-12-26T10:48:39.643Z,37.40
2018-12-26T10:51:09.637Z,37.40
2018-12-26T10:53:42.667Z,37.30
2018-12-26T10:56:12.715Z,37.20
2018-12-26T10:58:42.721Z,37.10
2018-12-26T11:01:12.681Z,37.10
2018-12-26T11:03:42.686Z,37.00
2018-12-26T11:06:12.650Z,36.90
2018-12-26T11:08:42.589Z,36.80
2018-12-26T11:11:12.569Z,36.80
2018-12-26T11:13:42.598Z,36.90
2018-12-26T11:16:12.596Z,36.70
2018-12-26T11:18:42.558Z,36.70
2018-12-26T11:21:12.565Z,36.60
2018-12-26T11:23:42.526Z,36.80
2018-12-26T11:26:12.492Z,36.80
2018-12-26T11:28:42.443Z,36.70
2018-12-26T11:31:12.421Z,36.70
2018-12-26T11:33:42.498Z,36.70
2018-12-26T11:36:12.456Z,36.70
2018-12-26T11:38:42.587Z,36.60
2018-12-26T11:41:12.563Z,36.70
2018-12-26T11:43:42.546Z,36.80
2018-12-26T11:46:12.586Z,36.70
2018-12-26T11:48:42.694Z,36.90
2018-12-26T11:51:12.705Z,36.80
2018-12-26T11:53:42.698Z,36.80
2018-12-26T11:56:12.733Z,36.90
2018-12-26T11:58:42.720Z,36.90
2018-12-26T12:01:12.681Z,36.90
2018-12-26T12:03:42.667Z,37.00
2018-12-26T12:06:12.646Z,37.00
2018-12-26T12:08:42.613Z,37.10
2018-12-26T12:11:12.648Z,37.10
2018-12-26T12:13:42.803Z,37.20
2018-12-26T12:16:12.847Z,37.30
2018-12-26T12:18:42.815Z,37.30
2018-12-26T12:21:12.798Z,37.40
2018-12-26T12:23:42.775Z,37.50
2018-12-26T12:26:12.789Z,37.50
2018-12-26T12:28:42.740Z,37.60
2018-12-26T12:31:12.716Z,37.70
2018-12-26T12:33:43.895Z,37.70
2018-12-26T12:36:13.929Z,37.70
2018-12-26T12:38:43.966Z,37.70
2018-12-26T12:41:13.933Z,37.70
2018-12-26T12:43:43.926Z,37.70
2018-12-26T12:46:13.895Z,37.80
2018-12-26T12:48:43.930Z,37.60
2018-12-26T12:51:13.918Z,37.60
2018-12-26T12:53:43.890Z,37.50
2018-12-26T12:56:13.951Z,37.40
2018-12-26T12:58:43.964Z,37.30
2018-12-26T13:01:13.999Z,37.30
2018-12-26T13:03:46.608Z,37.10
2018-12-26T13:06:15.622Z,37.10
2018-12-26T13:08:45.642Z,36.90
2018-12-26T13:11:15.611Z,37.00
2018-12-26T13:13:45.603Z,36.90
2018-12-26T13:16:15.642Z,36.90
2018-12-26T13:18:45.614Z,37.00
2018-12-26T13:21:15.571Z,36.80
2018-12-26T13:23:45.538Z,36.80
2018-12-26T13:26:18.487Z,36.80
2018-12-26T13:28:48.473Z,36.80
2018-12-26T13:31:18.441Z,36.80
2018-12-26T13:33:48.398Z,36.80
2018-12-26T13:36:18.490Z,36.90
2018-12-26T13:38:48.438Z,36.80
2018-12-26T13:41:18.416Z,36.90
2018-12-26T13:43:48.440Z,37.00
2018-12-26T13:46:18.404Z,36.90
2018-12-26T13:48:48.506Z,37.00
2018-12-26T13:51:18.461Z,37.00
2018-12-26T13:53:48.450Z,37.10
2018-12-26T13:56:18.405Z,37.00
2018-12-26T13:58:48.691Z,37.10
2018-12-26T14:01:18.661Z,37.20
2018-12-26T14:03:48.685Z,37.20
2018-12-26T14:06:18.653Z,37.30
2018-12-26T14:08:48.689Z,37.30
2018-12-26T14:11:18.675Z,37.50
2018-12-26T14:13:48.652Z,37.40
2018-12-26T14:16:18.682Z,37.50
2018-12-26T14:18:48.654Z,37.60
2018-12-26T14:21:18.609Z,37.70
2018-12-26T14:23:48.609Z,37.70
2018-12-26T14:26:18.564Z,37.70
2018-12-26T14:28:48.614Z,37.70
2018-12-26T14:31:18.594Z,37.80
2018-12-26T14:33:48.579Z,37.60
2018-12-26T14:36:18.530Z,37.60
2018-12-26T14:38:48.550Z,37.50
2018-12-26T14:41:18.512Z,37.40
2018-12-26T14:43:48.547Z,37.30
2018-12-26T14:46:18.537Z,37.30
2018-12-26T14:48:48.497Z,37.20
2018-12-26T14:51:26.225Z,37.10
2018-12-26T14:53:50.198Z,37.10
2018-12-26T14:56:20.250Z,37.00
2018-12-26T14:58:50.280Z,37.00
2018-12-26T15:01:20.254Z,36.90
2018-12-26T15:03:50.248Z,36.90
2018-12-26T15:06:20.226Z,36.80
2018-12-26T15:08:50.178Z,37.00
2018-12-26T15:11:20.131Z,37.00
2018-12-26T15:13:50.095Z,37.00
2018-12-26T15:16:20.046Z,36.90
2018-12-26T15:18:50.019Z,36.90
2018-12-26T15:21:20.070Z,36.80
2018-12-26T15:23:50.023Z,36.90
2018-12-26T15:26:19.986Z,36.90
2018-12-26T15:28:49.947Z,36.80
2018-12-26T15:31:19.889Z,37.00
2018-12-26T15:33:49.904Z,36.90
2018-12-26T15:36:19.863Z,37.00
2018-12-26T15:38:50.924Z,37.00
2018-12-26T15:41:20.883Z,37.70
2018-12-26T15:43:50.829Z,37.10
2018-12-26T15:46:20.806Z,37.10
2018-12-26T15:48:50.758Z,37.10
2018-12-26T15:51:20.718Z,37.20
2018-12-26T15:53:50.685Z,37.30
2018-12-26T15:56:20.654Z,37.30
2018-12-26T15:58:50.611Z,37.50
2018-12-26T16:01:20.614Z,37.40
2018-12-26T16:03:50.574Z,38.20
2018-12-26T16:06:20.562Z,37.30
2018-12-26T16:08:50.530Z,37.30
2018-12-26T16:11:20.494Z,37.70
2018-12-26T16:13:50.466Z,38.30
2018-12-26T16:16:20.406Z,38.80
2018-12-26T16:18:50.405Z,39.70
2018-12-26T16:21:20.366Z,39.90
2018-12-26T16:23:50.346Z,40.70
2018-12-26T16:26:20.310Z,40.90
2018-12-26T16:28:50.691Z,40.80
2018-12-26T16:31:20.693Z,41.00
2018-12-26T16:33:50.731Z,41.20
2018-12-26T16:36:20.691Z,41.50
2018-12-26T16:38:50.666Z,41.60
2018-12-26T16:41:20.701Z,41.20
2018-12-26T16:43:50.747Z,41.00
2018-12-26T16:46:20.703Z,41.10
2018-12-26T16:48:50.702Z,41.00
2018-12-26T16:51:20.667Z,41.00
2018-12-26T16:53:50.715Z,41.00
2018-12-26T16:56:20.822Z,41.50
2018-12-26T16:58:50.873Z,41.50
2018-12-26T17:01:20.929Z,41.60
2018-12-26T17:03:51.008Z,41.60
2018-12-26T17:06:21.090Z,41.60
2018-12-26T17:08:51.065Z,41.30
2018-12-26T17:11:21.150Z,41.40
2018-12-26T17:13:51.135Z,41.40
2018-12-26T17:16:21.150Z,41.50
2018-12-26T17:18:51.246Z,41.70
2018-12-26T17:21:21.213Z,41.70
2018-12-26T17:23:51.289Z,41.70
2018-12-26T17:26:21.302Z,41.60
2018-12-26T17:28:51.253Z,41.70
2018-12-26T17:31:21.359Z,41.50
2018-12-26T17:33:51.397Z,41.50
2018-12-26T17:36:21.433Z,41.50
2018-12-26T17:38:51.406Z,41.20
2018-12-26T17:41:21.414Z,41.00
2018-12-26T17:43:51.372Z,41.00
2018-12-26T17:46:21.383Z,40.90
2018-12-26T17:48:51.508Z,41.10
2018-12-26T17:51:23.373Z,41.20
2018-12-26T17:54:19.729Z,41.40
2018-12-26T17:57:10.596Z,41.50
2018-12-26T18:00:08.590Z,41.50
2018-12-26T18:02:42.011Z,41.80
2018-12-26T18:05:12.083Z,42.00
2018-12-26T18:07:43.232Z,42.00
2018-12-26T18:10:13.446Z,41.50
2018-12-26T18:12:43.481Z,42.30
2018-12-26T18:15:13.502Z,42.40
2018-12-26T18:17:43.487Z,42.40
2018-12-26T18:20:13.521Z,42.60
2018-12-26T18:22:43.718Z,42.80
2018-12-26T18:25:13.859Z,42.80
2018-12-26T18:27:44.199Z,43.00
2018-12-26T18:30:14.229Z,43.80
2018-12-26T18:32:44.234Z,43.30
2018-12-26T18:35:14.227Z,43.30
2018-12-26T18:37:44.214Z,43.40
2018-12-26T18:40:14.174Z,43.30
2018-12-26T18:42:44.279Z,43.30
2018-12-26T18:45:14.298Z,44.10
2018-12-26T18:47:44.550Z,43.30
2018-12-26T18:50:14.779Z,43.30
2018-12-26T18:52:44.873Z,43.30
2018-12-26T18:55:14.952Z,43.40
2018-12-26T18:57:45.029Z,43.50
2018-12-26T19:00:15.115Z,43.10
2018-12-26T19:02:45.340Z,43.40
2018-12-26T19:05:15.392Z,43.50
2018-12-26T19:07:45.515Z,43.30
2018-12-26T19:10:15.543Z,43.30
2018-12-26T19:12:45.498Z,43.20
2018-12-26T19:15:15.557Z,43.20
2018-12-26T19:17:45.549Z,43.40
2018-12-26T19:20:15.550Z,43.70
2018-12-26T19:22:45.555Z,43.50
2018-12-26T19:25:15.517Z,43.90
2018-12-26T19:27:45.498Z,43.80
2018-12-26T19:30:15.554Z,43.70
2018-12-26T19:32:45.512Z,43.90
2018-12-26T19:35:15.566Z,43.90
2018-12-26T19:37:45.520Z,43.70
2018-12-26T19:40:15.527Z,43.60
2018-12-26T19:42:45.496Z,43.60
2018-12-26T19:45:15.533Z,43.40
2018-12-26T19:47:45.566Z,44.30
2018-12-26T19:50:15.530Z,44.60
2018-12-26T19:52:45.603Z,44.50
2018-12-26T19:55:15.732Z,45.10
2018-12-26T19:57:45.693Z,45.00
2018-12-26T20:00:15.654Z,45.20
2018-12-26T20:02:45.623Z,46.10
2018-12-26T20:05:15.608Z,46.30
2018-12-26T20:07:45.609Z,45.60
2018-12-26T20:10:15.599Z,45.00
2018-12-26T20:12:45.569Z,45.00
2018-12-26T20:15:15.576Z,44.80
2018-12-26T20:17:45.655Z,45.00
2018-12-26T20:20:15.695Z,44.70
2018-12-26T20:22:45.687Z,44.60
2018-12-26T20:25:15.714Z,44.70
2018-12-26T20:27:45.725Z,44.70
2018-12-26T20:30:15.897Z,44.60
2018-12-26T20:32:45.850Z,44.20
2018-12-26T20:35:15.848Z,44.10
2018-12-26T20:37:45.957Z,44.20
2018-12-26T20:40:15.934Z,44.20
2018-12-26T20:42:46.867Z,44.10
2018-12-26T20:45:16.826Z,44.00
2018-12-26T20:47:46.777Z,44.20
2018-12-26T20:50:16.739Z,44.00
2018-12-26T20:52:46.720Z,44.60
2018-12-26T20:55:16.753Z,44.10
2018-12-26T20:57:46.723Z,45.20
2018-12-26T21:00:16.713Z,45.30
2018-12-26T21:02:46.837Z,44.60
2018-12-26T21:05:16.826Z,44.50
2018-12-26T21:07:46.785Z,44.50
2018-12-26T21:10:16.761Z,44.50
2018-12-26T21:12:46.813Z,44.50
2018-12-26T21:15:16.854Z,44.40
2018-12-26T21:17:46.874Z,44.30
2018-12-26T21:20:16.889Z,44.20
2018-12-26T21:22:46.848Z,44.20
2018-12-26T21:25:16.803Z,44.40
2018-12-26T21:27:46.806Z,44.30
2018-12-26T21:30:17.997Z,44.50
2018-12-26T21:32:48.129Z,44.40
2018-12-26T21:35:18.117Z,44.30
2018-12-26T21:37:48.187Z,44.40
2018-12-26T21:40:18.196Z,44.40
2018-12-26T21:42:48.214Z,44.40
2018-12-26T21:45:18.181Z,44.40
2018-12-26T21:47:48.171Z,44.40
2018-12-26T21:50:18.218Z,44.50
2018-12-26T21:52:49.151Z,44.50
2018-12-26T21:55:19.208Z,44.40
2018-12-26T21:57:49.164Z,44.50
2018-12-26T22:00:19.122Z,44.40
2018-12-26T22:02:49.076Z,44.60
2018-12-26T22:05:19.058Z,44.60
2018-12-26T22:07:49.040Z,44.70
2018-12-26T22:10:19.059Z,44.80
2018-12-26T22:12:49.001Z,45.20
2018-12-26T22:15:18.958Z,45.20
2018-12-26T22:17:48.955Z,45.10
2018-12-26T22:20:19.007Z,45.00
2018-12-26T22:22:49.070Z,44.80
2018-12-26T22:25:19.110Z,44.70
2018-12-26T22:27:49.122Z,44.50
2018-12-26T22:30:19.148Z,44.30
2018-12-26T22:32:49.109Z,44.20
2018-12-26T22:35:19.102Z,44.20
2018-12-26T22:37:49.077Z,44.10
2018-12-26T22:40:19.034Z,43.80
2018-12-26T22:42:49.007Z,44.30
2018-12-26T22:45:18.970Z,44.40
2018-12-26T22:47:48.931Z,43.50
2018-12-26T22:50:18.890Z,43.60
2018-12-26T22:52:48.890Z,43.40
2018-12-26T22:55:18.860Z,43.40
2018-12-26T22:57:48.898Z,43.40
2018-12-26T23:00:22.102Z,43.30
2018-12-26T23:02:53.678Z,43.40
2018-12-26T23:05:23.724Z,43.70
2018-12-26T23:07:53.686Z,43.20
2018-12-26T23:10:23.683Z,43.10
2018-12-26T23:12:53.617Z,43.20
2018-12-26T23:15:23.603Z,43.20
2018-12-26T23:17:53.632Z,43.10
2018-12-26T23:20:23.611Z,43.10
2018-12-26T23:22:53.614Z,43.30
2018-12-26T23:25:23.566Z,43.70
2018-12-26T23:27:53.537Z,43.10
2018-12-26T23:30:23.563Z,43.20
2018-12-26T23:32:53.535Z,43.30
2018-12-26T23:35:23.562Z,43.10
2018-12-26T23:37:53.542Z,43.10
2018-12-26T23:40:23.555Z,43.00
2018-12-26T23:42:53.568Z,43.20
2018-12-26T23:45:23.557Z,42.90
2018-12-26T23:47:53.502Z,43.10
2018-12-26T23:50:23.453Z,43.00
2018-12-26T23:52:53.451Z,42.90
2018-12-26T23:55:23.393Z,42.90
2018-12-26T23:57:53.423Z,42.90
